Cleveland, Ohio
Current Conditions -  °F | °C
As of 7:53 PM on Monday 22 Dec 2014 (Local Time) from KBKL Reporting Station
Clear Clear  
Wind Chill: 34°   Ceiling: Unl
Heat Index: 41°   Visibility: 10mi
Dew Point: 30°   Wind: 13mph
Humidity: 65%   Direction: 120°ESE
Pressure: 29.91"   Gusts: 20mph
Location:  41.5°N, 81.69°W
Report Text: KBKL 230053Z 12011G17KT 10SM CLR 05/M01 A2991 RMK AO2 SLP135 T00501011
Loading
Personal Weather Stations






























Interactive Weather Map New forecast layout! Learn more

10-Day Weather Forecast

Advertisements
Track Severe Weather on mobile